x

West Moresby (46208) Wave Buoy

10:00am - Sun 26th Feb 2017 All times are PST. -8 hours from GMT.

  • Sig Wave height 11.8ft
  • Peak Period 12s
  • Wind
    18mph, 20mph gusts
  • Sea Temp 45°f
  • Air Temp 42°f
  • Sea Pressure 1020.3mb
  • West Moresby
  • West Moresby

More Historic Weather Station data

Upgrade to MSW Pro to gain access to the past 30 days of data for over 8000 Wavebouys and Weather Stations around the globe.

Join Pro

Comparision Forecast

View Surf forecast
   
Sun 02/26 10:00am 12ft 12s 18 20 mph 1020.3mb 45f 42f
9:00am 13.5ft 11s 18 22 mph 1020mb 45f 42f
8:00am 13ft 10s 18 25 mph 1019.6mb 45f 42f
7:00am 13.5ft 11s 22 27 mph 1019.3mb 45f 42f
6:00am 12.5ft 10s 25 29 mph 1018.6mb 45f 42f
5:00am 12ft 11s 25 29 mph 1018.5mb 45f 42f
4:00am 13ft 11s 22 27 mph 1018.1mb 45f 42f
3:00am 13ft 10s 25 29 mph 1017.3mb 44f 43f
2:00am 15ft 11s 25 29 mph 1017.1mb 44f 43f
1:00am 15ft 10s 27 34 mph 1016.2mb 44f 43f
12:00am 15ft 11s 25 29 mph 1015.7mb 45f 42f
Sat 02/25 11:00pm 15.5ft 10s 22 27 mph 1015.4mb 45f 42f
10:00pm 15.5ft 11s 29 34 mph 1014.8mb 45f 43f
8:00pm 15ft 10s 31 38 mph 1013.3mb 45f 43f
7:00pm 16ft 8s 31 38 mph 1012.8mb 45f 44f
6:00pm 15ft 9s 29 36 mph 1013.1mb 45f 43f
5:00pm 15ft 9s 29 38 mph 1013.9mb 45f 43f
4:00pm 13.5ft 16s 29 38 mph 1014.5mb 45f 43f
3:00pm 12.5ft 8s 34 47 mph 1015.6mb 45f 42f
2:00pm 11.5ft 16s 31 43 mph 1016.7mb 45f 42f
1:00pm 11.5ft 17s 25 31 mph 1017.9mb 45f 43f
12:00pm 10.5ft 15s 27 36 mph 1018.9mb 45f 42f
11:00am 9.5ft 15s 27 36 mph 1019.8mb 45f 43f
10:00am 9ft 14s 25 31 mph 1020.9mb 45f 42f
9:00am 9ft 14s 20 27 mph 1022mb 45f 42f
8:00am 8ft 15s 25 29 mph 1022.8mb 45f 42f
7:00am 8ft 13s 22 27 mph 1023.6mb 45f 42f
6:00am 7ft 15s 20 25 mph 1024.9mb 45f 42f
5:00am 7ft 14s 22 27 mph 1025.6mb 45f 42f
4:00am 7ft 14s 18 22 mph 1026.3mb 45f 44f
3:00am 6.5ft 14s 16 20 mph 1027.1mb 45f 43f
2:00am 6.5ft 14s 13 18 mph 1027.7mb 45f 42f
1:00am 6.5ft 14s 16 18 mph 1028.3mb 45f 42f
12:00am 6.5ft 14s 16 18 mph 1028.4mb 45f 43f
Fri 02/24 11:00pm 7ft 14s 18 22 mph 1028.8mb 45f 43f
10:00pm 7ft 14s 18 22 mph 1029mb 45f 43f
9:00pm 7ft 14s 18 22 mph 1028.9mb 45f 43f
8:00pm 7.5ft 14s 18 22 mph 1028.9mb 45f 44f
7:00pm 8ft 14s 22 25 mph 1028.8mb 45f 43f
6:00pm 8ft 14s 20 25 mph 1028.8mb 45f 43f
5:00pm 7.5ft 14s 18 22 mph 1028.5mb 45f 43f
4:00pm 7.5ft 14s 18 20 mph 1028.1mb 45f 43f
3:00pm 8.5ft 14s 13
mph
1028.2mb 45f 42f
2:00pm 8ft 14s 16 20 mph 1027.9mb 45f 42f
1:00pm 8ft 14s 16 20 mph 1027.8mb 45f 41f
12:00pm 7.5ft 15s 20 25 mph 1027.4mb 45f 41f
11:00am 8ft 13s 18 22 mph 1027.3mb 46f 41f
10:00am 8ft 14s 25 27 mph 1026.4mb 45f 40f
9:00am 9ft 14s 22 27 mph 1026.4mb 45f 40f
8:00am 9ft 15s 22 27 mph 1025.9mb 45f 40f
7:00am 9ft 15s 20 25 mph 1025.9mb 45f 40f
6:00am 9ft 14s 22 27 mph 1025.3mb 45f 40f
5:00am 10.5ft 15s 22 29 mph 1024.8mb 45f 40f
4:00am 10ft 16s 22 27 mph 1024.9mb 45f 40f
3:00am 10.5ft 14s 20 27 mph 1024.4mb 45f 40f
2:00am 9.5ft 15s 22 27 mph 1024mb 45f 40f
1:00am 9ft 15s 18 22 mph 1024.1mb 45f 41f
12:00am 10ft 14s 18 22 mph 1024mb 46f 41f
Thu 02/23 11:00pm 10ft 14s 22 27 mph 1023.6mb 46f 42f
10:00pm 9.5ft 14s 27 34 mph 1023.7mb 46f 42f
9:00pm 8.5ft 14s 31 38 mph 1023.9mb 46f 42f
8:00pm 7.5ft 14s 27 34 mph 1024.2mb 46f 42f
7:00pm 6ft 14s 27 31 mph 1024.8mb 46f 42f
6:00pm 6ft 14s 22 29 mph 1025.3mb 46f 42f
5:00pm 5.5ft 16s 20 22 mph 1026.1mb 46f 42f
4:00pm 5.5ft 15s 20 25 mph 1026.2mb 45f 42f
3:00pm 5ft 15s 20 25 mph 1027mb 45f 42f
2:00pm 5.5ft 16s 18 22 mph 1027.3mb 45f 43f
1:00pm 5ft 15s 18 22 mph 1027.8mb 45f 42f
12:00pm 5ft 16s 13
mph
1027.7mb 46f 42f
11:00am 5ft 16s 9 11 mph 1027.7mb 46f 41f
10:00am 5ft 17s 13 16 mph 1028mb 45f 41f
9:00am 5.5ft 16s 13 18 mph 1028.3mb 45f 41f
8:00am 5.5ft 16s 16 18 mph 1028.6mb 45f 41f
7:00am 5ft 16s 16 18 mph 1028.2mb 45f 40f
6:00am 5ft 10s 13 16 mph 1027.8mb 45f 40f
5:00am 5ft 9s 7 9 mph 1027.6mb 45f 39f
4:00am 5.5ft 9s 11 16 mph 1027.7mb 45f 39f
3:00am 5ft 10s 16 18 mph 1027.6mb 45f 39f
2:00am 5ft 10s 9 13 mph 1027.6mb 45f 41f